Time;durP1;ratioP1;P1;durP2;ratioP2;P2;SDS_P1;SDS_P2;PMS_P1;PMS_P2;Temp;Humidity;BMP_temperature;BMP_pressure;BME280_temperature;BME280_humidity;BME280_pressure;Samples;Min_cycle;Max_cycle;Signal;HPM_P1;HPM_P2
2023/11/23 00:00:11;;;;;;;;;;;21.40;42.30;;;;;;4993488;28;19925;-59
2023/11/23 00:02:39;;;;;;;;;;;21.40;42.30;;;;;;4993927;28;19926;-59
2023/11/23 00:05:07;;;;;;;;;;;21.40;42.30;;;;;;4993469;28;19969;-59
2023/11/23 00:07:35;;;;;;;;;;;21.40;42.30;;;;;;4976693;28;20451;-59
2023/11/23 00:10:04;;;;;;;;;;;21.40;42.30;;;;;;4993645;28;19930;-59
2023/11/23 00:12:31;;;;;;;;;;;21.40;42.30;;;;;;4993221;28;19980;-59
2023/11/23 00:15:00;;;;;;;;;;;21.40;42.20;;;;;;4993788;28;19933;-59
2023/11/23 00:17:29;;;;;;;;;;;21.40;42.30;;;;;;4992574;28;20441;-59
2023/11/23 00:19:56;;;;;;;;;;;21.40;42.30;;;;;;4993334;28;19926;-59
2023/11/23 00:22:23;;;;;;;;;;;21.30;42.20;;;;;;4994173;28;20446;-59
2023/11/23 00:24:50;;;;;;;;;;;21.30;42.30;;;;;;4996872;28;20023;-59
2023/11/23 00:27:17;;;;;;;;;;;21.30;42.30;;;;;;4997262;28;19977;-59
2023/11/23 00:29:45;;;;;;;;;;;21.30;42.20;;;;;;4996730;28;19964;-59
2023/11/23 00:32:12;;;;;;;;;;;21.30;42.80;;;;;;4996424;28;19981;-59
2023/11/23 00:34:39;;;;;;;;;;;21.30;42.20;;;;;;4997209;28;20330;-60
2023/11/23 00:37:07;;;;;;;;;;;21.30;42.20;;;;;;4983337;28;19930;-59
2023/11/23 00:39:35;;;;;;;;;;;21.30;42.10;;;;;;4976909;28;20372;-59
2023/11/23 00:42:03;;;;;;;;;;;21.30;42.10;;;;;;4976912;28;20029;-59
2023/11/23 00:44:31;;;;;;;;;;;21.30;42.20;;;;;;4977343;28;20269;-59
2023/11/23 00:46:58;;;;;;;;;;;21.30;42.20;;;;;;4976744;28;19932;-59
2023/11/23 00:49:26;;;;;;;;;;;21.30;42.20;;;;;;4977275;28;19930;-59
2023/11/23 00:51:53;;;;;;;;;;;21.30;42.20;;;;;;4977130;28;19997;-59
2023/11/23 00:54:21;;;;;;;;;;;21.30;42.20;;;;;;4977163;28;20287;-59
2023/11/23 00:56:48;;;;;;;;;;;21.30;42.30;;;;;;4977028;28;19932;-59
2023/11/23 00:59:15;;;;;;;;;;;21.30;42.20;;;;;;4976614;28;20140;-59
2023/11/23 01:01:43;;;;;;;;;;;21.30;42.20;;;;;;4976631;28;19926;-60
2023/11/23 01:04:10;;;;;;;;;;;21.30;42.20;;;;;;4963932;28;19933;-59
2023/11/23 01:06:37;;;;;;;;;;;21.20;42.10;;;;;;4995987;28;19988;-59
2023/11/23 01:09:05;;;;;;;;;;;21.20;42.20;;;;;;4995798;28;19926;-59
2023/11/23 01:11:32;;;;;;;;;;;21.20;42.20;;;;;;4996532;28;20021;-59
2023/11/23 01:13:59;;;;;;;;;;;21.20;42.20;;;;;;4996176;28;20359;-59
2023/11/23 01:16:26;;;;;;;;;;;21.20;42.10;;;;;;4996322;28;20297;-59
2023/11/23 01:18:53;;;;;;;;;;;21.20;42.10;;;;;;4996005;28;19997;-59
2023/11/23 01:21:20;;;;;;;;;;;21.20;42.20;;;;;;4996233;28;20013;-59
2023/11/23 01:23:47;;;;;;;;;;;21.20;42.70;;;;;;4969020;28;20280;-59
2023/11/23 01:26:16;;;;;;;;;;;21.20;42.10;;;;;;4994560;28;19933;-59
2023/11/23 01:28:42;;;;;;;;;;;21.20;42.20;;;;;;4988048;28;19973;-59
2023/11/23 01:31:09;;;;;;;;;;;21.20;42.20;;;;;;4993449;28;20462;-59
2023/11/23 01:33:36;;;;;;;;;;;21.20;42.10;;;;;;4996025;28;19937;-59
2023/11/23 01:36:04;;;;;;;;;;;21.20;42.10;;;;;;4996033;28;19925;-59
2023/11/23 01:38:31;;;;;;;;;;;21.20;42.10;;;;;;4995504;28;19932;-59
2023/11/23 01:40:58;;;;;;;;;;;21.20;42.10;;;;;;4996077;28;19926;-59
2023/11/23 01:43:25;;;;;;;;;;;21.20;42.10;;;;;;4977209;28;20017;-59
2023/11/23 01:45:52;;;;;;;;;;;21.20;42.00;;;;;;4975796;28;19926;-60
2023/11/23 01:48:20;;;;;;;;;;;21.20;42.00;;;;;;4976410;28;20280;-59
2023/11/23 01:50:48;;;;;;;;;;;21.20;42.00;;;;;;4959146;28;19929;-59
2023/11/23 01:53:16;;;;;;;;;;;21.20;42.10;;;;;;4976238;28;19930;-59
2023/11/23 01:55:43;;;;;;;;;;;21.20;42.00;;;;;;4976162;28;19926;-58
2023/11/23 01:58:11;;;;;;;;;;;21.20;42.10;;;;;;4975667;28;20340;-59
2023/11/23 02:00:38;;;;;;;;;;;21.20;42.00;;;;;;4958647;28;19932;-59
2023/11/23 02:03:05;;;;;;;;;;;21.20;42.00;;;;;;4976016;28;19933;-59
2023/11/23 02:05:32;;;;;;;;;;;21.20;42.10;;;;;;4975861;28;19926;-59
2023/11/23 02:07:59;;;;;;;;;;;21.20;42.00;;;;;;4975659;28;19965;-59
2023/11/23 02:10:27;;;;;;;;;;;21.10;41.90;;;;;;4975507;28;20017;-59
2023/11/23 02:12:55;;;;;;;;;;;21.20;42.00;;;;;;4958317;28;19957;-59
2023/11/23 02:15:22;;;;;;;;;;;21.10;41.90;;;;;;4975474;28;19926;-59
2023/11/23 02:18:07;;;;;;;;;;;21.10;41.90;;;;;;4976436;28;19926;-59
2023/11/23 02:20:35;;;;;;;;;;;21.10;41.90;;;;;;4977333;28;19926;-59
2023/11/23 02:23:03;;;;;;;;;;;21.10;41.90;;;;;;4975805;28;20372;-59
2023/11/23 02:25:30;;;;;;;;;;;21.10;41.90;;;;;;4975166;28;20002;-59
2023/11/23 02:27:57;;;;;;;;;;;21.10;41.90;;;;;;4975292;28;19930;-59
2023/11/23 02:30:24;;;;;;;;;;;21.10;42.00;;;;;;4975317;28;19926;-59
2023/11/23 02:32:51;;;;;;;;;;;21.10;41.90;;;;;;4975146;28;19953;-59
2023/11/23 02:35:21;;;;;;;;;;;21.10;41.90;;;;;;4975103;28;19932;-59
2023/11/23 02:37:48;;;;;;;;;;;21.10;41.90;;;;;;4975040;28;19997;-59
2023/11/23 02:40:15;;;;;;;;;;;21.10;41.90;;;;;;4973432;28;20434;-59
2023/11/23 02:42:43;;;;;;;;;;;21.10;41.90;;;;;;4975373;28;19926;-60
2023/11/23 02:45:12;;;;;;;;;;;21.10;41.90;;;;;;4974573;28;19926;-59
2023/11/23 02:47:39;;;;;;;;;;;21.10;41.90;;;;;;4975090;28;20347;-59
2023/11/23 02:50:07;;;;;;;;;;;21.10;41.90;;;;;;4974750;28;19993;-60
2023/11/23 02:52:34;;;;;;;;;;;21.10;42.40;;;;;;4975079;28;19926;-59
2023/11/23 02:55:01;;;;;;;;;;;21.10;41.90;;;;;;4974976;28;19926;-60
2023/11/23 02:57:28;;;;;;;;;;;21.10;41.90;;;;;;4975224;28;19931;-59
2023/11/23 02:59:55;;;;;;;;;;;21.10;41.90;;;;;;4973510;28;20387;-59
2023/11/23 03:02:22;;;;;;;;;;;21.10;41.90;;;;;;4975080;28;19926;-59
2023/11/23 03:04:49;;;;;;;;;;;21.10;41.90;;;;;;4973979;28;19926;-58
2023/11/23 03:07:17;;;;;;;;;;;21.10;41.90;;;;;;4975075;28;20020;-59
2023/11/23 03:09:45;;;;;;;;;;;21.00;41.90;;;;;;4974517;28;19927;-60
2023/11/23 03:12:12;;;;;;;;;;;21.00;41.90;;;;;;4974723;28;19980;-59
2023/11/23 03:14:39;;;;;;;;;;;21.00;41.90;;;;;;4974458;28;19961;-58
2023/11/23 03:17:06;;;;;;;;;;;21.00;41.90;;;;;;4974663;28;19957;-59
2023/11/23 03:19:36;;;;;;;;;;;21.00;41.90;;;;;;4989488;28;20012;-59
2023/11/23 03:22:03;;;;;;;;;;;21.00;41.90;;;;;;4994004;28;19933;-61
2023/11/23 03:24:31;;;;;;;;;;;21.00;41.80;;;;;;4993883;28;20372;-58
2023/11/23 03:26:58;;;;;;;;;;;21.00;42.40;;;;;;4992849;28;19932;-59
2023/11/23 03:29:26;;;;;;;;;;;21.00;41.80;;;;;;4994086;28;19933;-59
2023/11/23 03:31:53;;;;;;;;;;;21.00;41.80;;;;;;4992913;28;19992;-60
2023/11/23 03:34:20;;;;;;;;;;;21.00;41.80;;;;;;4993979;28;19926;-60
2023/11/23 03:36:47;;;;;;;;;;;21.00;41.80;;;;;;4976577;28;20041;-60
2023/11/23 03:39:14;;;;;;;;;;;21.00;41.80;;;;;;4992537;28;19925;-60
2023/11/23 03:41:41;;;;;;;;;;;21.00;41.80;;;;;;4992773;28;19930;-60
2023/11/23 03:44:08;;;;;;;;;;;21.00;41.80;;;;;;4976487;28;19930;-60
2023/11/23 03:46:35;;;;;;;;;;;21.00;41.80;;;;;;4993729;28;19980;-60
2023/11/23 03:49:04;;;;;;;;;;;21.00;41.70;;;;;;4993773;28;20033;-60
2023/11/23 03:51:31;;;;;;;;;;;21.00;41.70;;;;;;4993782;28;20028;-60
2023/11/23 03:53:58;;;;;;;;;;;21.00;41.70;;;;;;4993538;28;19980;-60
2023/11/23 03:56:25;;;;;;;;;;;21.00;41.70;;;;;;4993541;28;20024;-60
2023/11/23 03:58:52;;;;;;;;;;;21.00;41.70;;;;;;4996978;28;20343;-60
2023/11/23 04:01:21;;;;;;;;;;;21.00;42.20;;;;;;4997298;28;20358;-60
2023/11/23 04:03:48;;;;;;;;;;;21.00;41.70;;;;;;4997674;28;20016;-60
2023/11/23 04:06:15;;;;;;;;;;;21.00;42.30;;;;;;4996973;28;19932;-60
2023/11/23 04:08:42;;;;;;;;;;;21.00;41.70;;;;;;4997386;28;19984;-60
2023/11/23 04:11:10;;;;;;;;;;;21.00;41.70;;;;;;4997598;28;20013;-60
2023/11/23 04:13:37;;;;;;;;;;;21.00;41.60;;;;;;4996192;28;20013;-60
2023/11/23 04:16:04;;;;;;;;;;;21.00;41.60;;;;;;4997203;28;19930;-60
2023/11/23 04:18:31;;;;;;;;;;;21.00;41.60;;;;;;4990586;28;20387;-60
2023/11/23 04:20:58;;;;;;;;;;;21.00;41.60;;;;;;4977500;28;19973;-60
2023/11/23 04:23:25;;;;;;;;;;;21.00;41.60;;;;;;4977610;28;19926;-60
2023/11/23 04:25:52;;;;;;;;;;;21.00;41.60;;;;;;4977608;28;19938;-60
2023/11/23 04:28:19;;;;;;;;;;;21.00;41.60;;;;;;4977820;28;19926;-60
2023/11/23 04:30:46;;;;;;;;;;;20.90;41.60;;;;;;4959866;28;20439;-60
2023/11/23 04:33:13;;;;;;;;;;;20.90;41.60;;;;;;4977248;28;19926;-60
2023/11/23 04:35:41;;;;;;;;;;;20.90;41.60;;;;;;4976976;28;19926;-60
2023/11/23 04:38:08;;;;;;;;;;;20.90;41.50;;;;;;4972577;28;20033;-60
2023/11/23 04:40:34;;;;;;;;;;;21.00;41.30;;;;;;4977163;28;19981;-60
2023/11/23 04:43:01;;;;;;;;;;;21.00;41.10;;;;;;4977501;28;20379;-60
2023/11/23 04:45:28;;;;;;;;;;;21.00;40.80;;;;;;4977339;28;19926;-60
2023/11/23 04:47:55;;;;;;;;;;;21.00;40.70;;;;;;4977100;28;19926;-60
2023/11/23 04:50:23;;;;;;;;;;;21.10;40.60;;;;;;4977077;28;19927;-60
2023/11/23 04:52:49;;;;;;;;;;;21.00;40.30;;;;;;4944338;28;20013;-60
2023/11/23 04:55:17;;;;;;;;;;;21.10;40.40;;;;;;4976884;28;20029;-60
2023/11/23 04:57:43;;;;;;;;;;;21.00;40.40;;;;;;4960113;28;20013;-60
2023/11/23 05:00:11;;;;;;;;;;;21.00;40.50;;;;;;4959528;28;19973;-60
2023/11/23 05:02:42;;;;;;;;;;;21.00;41.00;;;;;;4977035;28;19926;-60
2023/11/23 05:05:13;;;;;;;;;;;21.00;40.50;;;;;;4976971;28;19933;-60
2023/11/23 05:07:40;;;;;;;;;;;20.90;40.40;;;;;;4976810;28;19926;-60
2023/11/23 05:10:11;;;;;;;;;;;20.90;40.30;;;;;;4959460;28;19934;-60
2023/11/23 05:12:38;;;;;;;;;;;20.90;40.20;;;;;;4976916;28;19930;-60
2023/11/23 05:15:05;;;;;;;;;;;20.90;40.10;;;;;;4976718;28;20386;-60
2023/11/23 05:17:33;;;;;;;;;;;20.90;40.10;;;;;;4976776;28;19934;-60
2023/11/23 05:20:00;;;;;;;;;;;20.90;40.10;;;;;;4994763;28;19926;-60
2023/11/23 05:22:27;;;;;;;;;;;21.00;40.10;;;;;;4978726;28;19926;-60
2023/11/23 05:24:54;;;;;;;;;;;21.00;40.20;;;;;;4995830;28;19926;-60
2023/11/23 05:27:21;;;;;;;;;;;21.00;40.10;;;;;;4995790;28;19969;-60
2023/11/23 05:29:48;;;;;;;;;;;21.00;40.10;;;;;;4996066;28;19980;-60
2023/11/23 05:32:18;;;;;;;;;;;21.00;40.10;;;;;;4996034;28;19929;-60
2023/11/23 05:34:45;;;;;;;;;;;21.00;40.10;;;;;;4995520;28;19972;-60
2023/11/23 05:37:12;;;;;;;;;;;21.00;40.10;;;;;;4995900;28;19972;-60
2023/11/23 05:39:39;;;;;;;;;;;21.00;40.10;;;;;;4978320;28;20018;-60
2023/11/23 05:42:10;;;;;;;;;;;21.00;40.00;;;;;;4976379;28;19930;-60
2023/11/23 05:44:37;;;;;;;;;;;21.00;40.00;;;;;;4972673;28;19926;-60
2023/11/23 05:47:05;;;;;;;;;;;21.00;39.90;;;;;;4956967;29;19927;-60
2023/11/23 05:49:32;;;;;;;;;;;21.00;39.80;;;;;;4956806;28;20265;-60
2023/11/23 05:51:59;;;;;;;;;;;21.00;39.70;;;;;;4958777;28;19949;-60
2023/11/23 05:54:26;;;;;;;;;;;21.00;39.70;;;;;;4975420;28;19926;-60
2023/11/23 05:56:53;;;;;;;;;;;21.10;39.70;;;;;;4975673;28;19930;-60
2023/11/23 05:59:20;;;;;;;;;;;21.00;39.70;;;;;;4975528;28;20283;-60
2023/11/23 06:01:47;;;;;;;;;;;21.00;39.60;;;;;;4975101;28;19930;-60
2023/11/23 06:04:14;;;;;;;;;;;21.00;39.70;;;;;;4974496;28;19926;-60
2023/11/23 06:06:42;;;;;;;;;;;21.10;39.70;;;;;;4974477;28;19934;-60
2023/11/23 06:09:09;;;;;;;;;;;21.10;39.70;;;;;;4975144;28;19926;-60
2023/11/23 06:11:36;;;;;;;;;;;21.10;39.70;;;;;;4975656;28;19927;-60
2023/11/23 06:14:04;;;;;;;;;;;21.10;39.70;;;;;;4975243;28;19973;-60
2023/11/23 06:16:31;;;;;;;;;;;21.10;39.70;;;;;;4972966;28;20000;-60
2023/11/23 06:18:58;;;;;;;;;;;21.10;39.60;;;;;;4973860;28;19981;-60
2023/11/23 06:21:29;;;;;;;;;;;21.10;39.40;;;;;;4970473;28;20001;-59
2023/11/23 06:23:56;;;;;;;;;;;21.10;39.50;;;;;;4968453;28;20379;-60
2023/11/23 06:26:23;;;;;;;;;;;21.10;39.60;;;;;;4971397;28;19926;-60
2023/11/23 06:28:50;;;;;;;;;;;21.10;39.70;;;;;;4972579;28;20383;-60
2023/11/23 06:31:17;;;;;;;;;;;21.10;40.00;;;;;;4955627;28;19934;-61
2023/11/23 06:33:44;;;;;;;;;;;21.10;40.30;;;;;;4967670;28;19978;-60
2023/11/23 06:36:12;;;;;;;;;;;21.20;40.40;;;;;;4953493;28;20287;-60
2023/11/23 06:38:39;;;;;;;;;;;21.20;40.50;;;;;;4967967;28;19934;-61
2023/11/23 06:41:08;;;;;;;;;;;21.30;40.50;;;;;;4966738;28;20438;-61
2023/11/23 06:43:36;;;;;;;;;;;21.30;40.70;;;;;;4967490;28;20045;-60
2023/11/23 06:46:03;;;;;;;;;;;21.40;40.60;;;;;;4967918;28;19942;-60
2023/11/23 06:48:30;;;;;;;;;;;21.40;40.40;;;;;;4973795;28;19974;-60
2023/11/23 06:50:57;;;;;;;;;;;21.40;40.30;;;;;;4967291;28;19930;-60
2023/11/23 06:53:24;;;;;;;;;;;21.50;40.50;;;;;;4969130;28;19951;-62
2023/11/23 06:55:51;;;;;;;;;;;21.50;40.70;;;;;;4966871;28;20510;-61
2023/11/23 06:58:18;;;;;;;;;;;21.50;40.80;;;;;;4951716;28;20675;-62
2023/11/23 07:00:45;;;;;;;;;;;21.60;40.80;;;;;;4960092;28;20834;-60
2023/11/23 07:03:12;;;;;;;;;;;21.60;40.40;;;;;;4970143;28;20025;-61
2023/11/23 07:05:39;;;;;;;;;;;21.70;40.20;;;;;;4966805;28;19926;-62
2023/11/23 07:08:06;;;;;;;;;;;21.70;40.00;;;;;;4961353;28;20438;-62
2023/11/23 07:10:34;;;;;;;;;;;21.70;39.80;;;;;;4950544;28;20339;-61
2023/11/23 07:13:03;;;;;;;;;;;21.80;39.70;;;;;;4950553;28;19957;-64
2023/11/23 07:15:30;;;;;;;;;;;21.80;39.50;;;;;;4966832;28;19945;-62
2023/11/23 07:17:59;;;;;;;;;;;21.80;39.40;;;;;;4962624;28;20435;-61
2023/11/23 07:20:27;;;;;;;;;;;21.80;39.20;;;;;;4962067;28;19933;-61
2023/11/23 07:22:54;;;;;;;;;;;21.80;39.00;;;;;;4968858;28;20038;-63
2023/11/23 07:25:21;;;;;;;;;;;21.90;39.00;;;;;;4963829;28;19941;-61
2023/11/23 07:27:49;;;;;;;;;;;21.80;38.90;;;;;;4964949;28;19948;-59
2023/11/23 07:30:16;;;;;;;;;;;21.80;39.10;;;;;;4965764;28;19933;-56
2023/11/23 07:32:43;;;;;;;;;;;21.90;39.40;;;;;;4963947;28;19961;-61
2023/11/23 07:35:10;;;;;;;;;;;21.90;39.60;;;;;;4967106;28;19930;-59
2023/11/23 07:37:37;;;;;;;;;;;21.90;39.70;;;;;;4973414;28;19957;-60
2023/11/23 07:40:12;;;;;;;;;;;21.90;39.70;;;;;;4968274;28;19926;-59
2023/11/23 07:42:42;;;;;;;;;;;21.90;39.70;;;;;;4967047;28;19935;-60
2023/11/23 07:45:10;;;;;;;;;;;21.90;39.50;;;;;;4974661;28;19930;-58
2023/11/23 07:47:41;;;;;;;;;;;21.90;39.50;;;;;;4971814;28;19937;-59
2023/11/23 07:50:09;;;;;;;;;;;21.90;39.30;;;;;;4953169;28;19985;-59
2023/11/23 07:52:36;;;;;;;;;;;21.90;39.00;;;;;;4972063;28;19997;-58
2023/11/23 07:55:04;;;;;;;;;;;21.90;38.80;;;;;;4971262;28;20268;-59
2023/11/23 07:57:31;;;;;;;;;;;21.90;38.70;;;;;;4968430;28;19930;-59
2023/11/23 07:59:58;;;;;;;;;;;21.90;38.60;;;;;;4969804;28;19981;-60
2023/11/23 08:02:26;;;;;;;;;;;22.00;38.80;;;;;;4963347;28;19978;-60
2023/11/23 08:04:53;;;;;;;;;;;22.00;39.10;;;;;;4966273;28;19960;-60
2023/11/23 08:07:20;;;;;;;;;;;22.00;39.10;;;;;;4966976;28;19926;-61
2023/11/23 08:09:47;;;;;;;;;;;22.00;38.90;;;;;;4969163;28;19969;-59
2023/11/23 08:12:14;;;;;;;;;;;22.00;39.00;;;;;;4968387;28;19954;-60
2023/11/23 08:14:41;;;;;;;;;;;22.10;39.30;;;;;;4966491;28;19930;-61
2023/11/23 08:17:08;;;;;;;;;;;22.10;39.50;;;;;;4966145;28;19957;-61
2023/11/23 08:19:36;;;;;;;;;;;22.10;39.80;;;;;;4968406;28;20056;-61
2023/11/23 08:22:03;;;;;;;;;;;22.20;39.90;;;;;;4971113;28;19934;-59
2023/11/23 08:24:32;;;;;;;;;;;22.20;39.90;;;;;;4970463;28;19977;-58
2023/11/23 08:26:59;;;;;;;;;;;22.30;39.70;;;;;;4968526;28;20026;-59
2023/11/23 08:29:30;;;;;;;;;;;22.30;39.80;;;;;;4961636;28;19973;-60
2023/11/23 08:31:57;;;;;;;;;;;22.40;39.90;;;;;;4964608;28;20083;-59
2023/11/23 08:34:24;;;;;;;;;;;22.40;39.90;;;;;;4975076;28;20110;-60
2023/11/23 08:36:52;;;;;;;;;;;22.50;39.90;;;;;;4970598;28;20005;-59
2023/11/23 08:39:35;;;;;;;;;;;22.50;39.90;;;;;;4962680;28;20084;-60
2023/11/23 08:42:02;;;;;;;;;;;22.60;39.90;;;;;;4971981;28;19949;-61
2023/11/23 08:44:29;;;;;;;;;;;22.60;39.90;;;;;;4970130;28;19930;-59
2023/11/23 08:46:57;;;;;;;;;;;22.60;39.90;;;;;;4968870;28;20375;-61
2023/11/23 08:49:25;;;;;;;;;;;22.70;39.90;;;;;;4955025;28;19934;-60
2023/11/23 08:51:52;;;;;;;;;;;22.70;39.80;;;;;;4970824;28;20276;-61
2023/11/23 08:54:19;;;;;;;;;;;22.70;39.90;;;;;;4970465;28;20017;-60
2023/11/23 08:56:46;;;;;;;;;;;22.70;39.70;;;;;;4973895;28;20021;-61
2023/11/23 08:59:14;;;;;;;;;;;22.80;39.70;;;;;;4974717;28;19929;-59
2023/11/23 09:01:41;;;;;;;;;;;22.80;39.70;;;;;;4969160;28;19934;-62
2023/11/23 09:04:12;;;;;;;;;;;22.80;39.40;;;;;;4948986;28;19935;-61
2023/11/23 09:06:40;;;;;;;;;;;22.80;39.30;;;;;;4969076;28;20021;-59
2023/11/23 09:09:07;;;;;;;;;;;22.80;39.20;;;;;;4969419;28;19992;-61
2023/11/23 09:11:35;;;;;;;;;;;22.80;39.00;;;;;;4967453;28;19934;-60
2023/11/23 09:14:02;;;;;;;;;;;22.80;38.90;;;;;;4973563;28;19926;-63
2023/11/23 09:16:29;;;;;;;;;;;22.80;38.70;;;;;;4972031;28;19981;-61
2023/11/23 09:18:57;;;;;;;;;;;22.80;38.70;;;;;;4974474;28;19965;-61
2023/11/23 09:21:24;;;;;;;;;;;22.80;38.60;;;;;;4966816;28;20786;-62
2023/11/23 09:23:53;;;;;;;;;;;22.80;38.70;;;;;;4971310;28;19930;-61
2023/11/23 09:26:20;;;;;;;;;;;22.90;38.70;;;;;;4953065;28;19930;-61
2023/11/23 09:28:47;;;;;;;;;;;22.80;38.60;;;;;;4974304;28;19926;-61
2023/11/23 09:31:17;;;;;;;;;;;22.80;38.50;;;;;;4976219;28;19934;-60
2023/11/23 09:33:45;;;;;;;;;;;22.80;38.30;;;;;;4969343;28;20002;-61
2023/11/23 09:36:14;;;;;;;;;;;22.90;38.40;;;;;;4951587;28;20384;-62
2023/11/23 09:38:42;;;;;;;;;;;22.90;38.30;;;;;;4968834;28;19933;-62
2023/11/23 09:41:11;;;;;;;;;;;22.90;38.30;;;;;;4968123;28;19981;-61
2023/11/23 09:43:38;;;;;;;;;;;22.90;38.30;;;;;;4967830;28;20025;-61
2023/11/23 09:46:06;;;;;;;;;;;22.90;38.30;;;;;;4968213;28;19930;-62
2023/11/23 09:48:34;;;;;;;;;;;22.90;38.30;;;;;;4975484;28;20025;-61
2023/11/23 09:51:01;;;;;;;;;;;23.00;38.40;;;;;;4967866;28;20383;-62
2023/11/23 09:53:28;;;;;;;;;;;23.00;38.50;;;;;;4970594;28;19957;-62
2023/11/23 09:55:55;;;;;;;;;;;23.00;38.40;;;;;;4970444;28;19964;-60
2023/11/23 09:58:22;;;;;;;;;;;23.00;38.30;;;;;;4973375;28;19993;-58
2023/11/23 10:00:51;;;;;;;;;;;23.00;38.20;;;;;;4966073;28;20438;-65
2023/11/23 10:03:20;;;;;;;;;;;23.00;38.10;;;;;;4969099;28;19934;-68
2023/11/23 10:05:47;;;;;;;;;;;23.10;38.80;;;;;;4961902;28;19926;-60
2023/11/23 10:08:16;;;;;;;;;;;23.10;41.90;;;;;;4970536;28;20459;-61
2023/11/23 10:10:45;;;;;;;;;;;23.10;42.20;;;;;;4968707;28;20030;-60
2023/11/23 10:13:11;;;;;;;;;;;23.20;42.20;;;;;;4965794;28;19942;-59
2023/11/23 10:15:38;;;;;;;;;;;23.20;42.10;;;;;;4966181;28;19926;-61
2023/11/23 10:18:06;;;;;;;;;;;23.20;41.90;;;;;;4966716;28;19930;-61
2023/11/23 10:20:36;;;;;;;;;;;23.30;40.30;;;;;;4962690;28;20572;-66
2023/11/23 10:23:07;;;;;;;;;;;23.30;40.60;;;;;;4973063;28;19933;-62
2023/11/23 10:25:35;;;;;;;;;;;23.30;40.70;;;;;;4970847;28;20479;-64
2023/11/23 10:28:06;;;;;;;;;;;23.30;40.50;;;;;;4972142;28;19925;-61
2023/11/23 10:30:36;;;;;;;;;;;23.40;40.40;;;;;;4968369;28;19931;-62
2023/11/23 10:33:04;;;;;;;;;;;23.40;40.30;;;;;;4969313;28;19926;-61
2023/11/23 10:35:36;;;;;;;;;;;23.50;40.20;;;;;;4969073;28;19926;-61
2023/11/23 10:38:05;;;;;;;;;;;23.50;40.10;;;;;;4965917;28;19972;-62
2023/11/23 10:40:32;;;;;;;;;;;23.50;40.90;;;;;;4957508;28;19926;-59
2023/11/23 10:43:00;;;;;;;;;;;23.60;40.10;;;;;;4978752;28;20394;-60
2023/11/23 10:45:27;;;;;;;;;;;23.60;40.30;;;;;;4978231;28;19938;-61
2023/11/23 10:47:58;;;;;;;;;;;23.60;40.10;;;;;;4971830;28;19934;-62
2023/11/23 10:50:25;;;;;;;;;;;23.60;40.30;;;;;;4973135;28;19926;-61
2023/11/23 10:52:57;;;;;;;;;;;23.60;40.30;;;;;;4965032;28;19934;-61
2023/11/23 10:55:24;;;;;;;;;;;23.60;39.40;;;;;;4972446;28;19938;-62
2023/11/23 10:57:55;;;;;;;;;;;23.60;39.30;;;;;;4948560;28;19927;-62
2023/11/23 11:00:25;;;;;;;;;;;23.60;39.00;;;;;;4968684;28;19926;-60
2023/11/23 11:02:54;;;;;;;;;;;23.60;38.90;;;;;;4969342;28;19954;-63
2023/11/23 11:05:28;;;;;;;;;;;23.60;38.70;;;;;;4968967;28;19981;-61
2023/11/23 11:08:00;;;;;;;;;;;23.60;38.70;;;;;;4964979;28;19942;-60
2023/11/23 11:10:28;;;;;;;;;;;23.60;38.90;;;;;;4967837;28;19938;-61
2023/11/23 11:13:06;;;;;;;;;;;23.60;38.80;;;;;;4953841;28;20008;-60
2023/11/23 11:15:34;;;;;;;;;;;23.60;38.80;;;;;;4967475;28;20395;-60
2023/11/23 11:18:07;;;;;;;;;;;23.60;38.80;;;;;;4970691;28;21764;-61
2023/11/23 11:20:34;;;;;;;;;;;23.60;38.50;;;;;;4968041;28;19934;-61
2023/11/23 11:23:02;;;;;;;;;;;23.60;38.40;;;;;;4967995;28;19926;-59
2023/11/23 11:25:39;;;;;;;;;;;23.60;38.20;;;;;;4970118;28;20410;-61
2023/11/23 11:28:15;;;;;;;;;;;23.60;38.30;;;;;;4971994;28;19926;-60
2023/11/23 11:30:43;;;;;;;;;;;23.60;38.30;;;;;;4973925;28;19934;-59
2023/11/23 11:33:14;;;;;;;;;;;23.60;39.10;;;;;;4969942;28;19977;-58
2023/11/23 11:35:45;;;;;;;;;;;23.60;38.80;;;;;;4967469;28;20017;-57
2023/11/23 11:38:15;;;;;;;;;;;23.60;38.70;;;;;;4966893;28;20025;-60
2023/11/23 11:40:47;;;;;;;;;;;23.60;38.40;;;;;;4970248;28;19933;-59
2023/11/23 11:43:15;;;;;;;;;;;23.60;38.40;;;;;;4972908;28;19926;-59
2023/11/23 11:45:42;;;;;;;;;;;23.60;38.50;;;;;;4971141;28;19926;-57
2023/11/23 11:48:09;;;;;;;;;;;23.60;38.70;;;;;;4969365;28;19934;-59
2023/11/23 11:50:36;;;;;;;;;;;23.60;38.40;;;;;;4973247;28;19926;-57
2023/11/23 11:53:05;;;;;;;;;;;23.60;38.40;;;;;;4976005;28;20339;-58
2023/11/23 11:55:32;;;;;;;;;;;23.60;38.10;;;;;;4969411;28;20017;-57
2023/11/23 11:57:59;;;;;;;;;;;23.60;38.50;;;;;;4958416;28;20269;-59
2023/11/23 12:00:26;;;;;;;;;;;23.60;37.90;;;;;;4969667;28;20347;-56
2023/11/23 12:02:53;;;;;;;;;;;23.70;37.80;;;;;;4965216;28;20620;-57
2023/11/23 12:05:20;;;;;;;;;;;23.70;37.80;;;;;;4963857;28;20451;-58
2023/11/23 12:07:53;;;;;;;;;;;23.70;37.80;;;;;;4962972;28;20459;-59
2023/11/23 12:10:21;;;;;;;;;;;23.70;37.50;;;;;;4967752;28;19934;-59
2023/11/23 12:12:48;;;;;;;;;;;23.70;37.60;;;;;;4962780;28;19988;-59
2023/11/23 12:15:16;;;;;;;;;;;23.70;38.00;;;;;;4970041;28;19930;-58
2023/11/23 12:17:49;;;;;;;;;;;23.70;37.80;;;;;;4966230;28;20695;-59
2023/11/23 12:20:17;;;;;;;;;;;23.70;37.90;;;;;;4973509;28;19930;-58
2023/11/23 12:22:44;;;;;;;;;;;23.70;37.30;;;;;;4966111;28;19938;-59
2023/11/23 12:25:12;;;;;;;;;;;23.60;37.20;;;;;;4969930;28;19937;-59
2023/11/23 12:27:42;;;;;;;;;;;23.60;37.00;;;;;;4971257;28;19938;-59
2023/11/23 12:30:10;;;;;;;;;;;23.60;36.80;;;;;;4973471;28;19926;-58
2023/11/23 12:32:37;;;;;;;;;;;23.60;37.30;;;;;;4973314;28;19977;-59
2023/11/23 12:35:05;;;;;;;;;;;23.60;37.40;;;;;;4977045;28;20391;-59
2023/11/23 12:37:32;;;;;;;;;;;23.60;37.90;;;;;;4978424;28;19953;-61
2023/11/23 12:39:59;;;;;;;;;;;23.60;38.20;;;;;;4975168;28;19927;-60
2023/11/23 12:42:26;;;;;;;;;;;23.60;38.00;;;;;;4974501;28;19934;-58
2023/11/23 12:44:54;;;;;;;;;;;23.60;37.70;;;;;;4970550;28;19934;-57
2023/11/23 12:47:21;;;;;;;;;;;23.60;37.70;;;;;;4973625;28;19942;-58
2023/11/23 12:49:49;;;;;;;;;;;23.60;37.90;;;;;;4957850;28;20028;-56
2023/11/23 12:52:16;;;;;;;;;;;23.60;37.80;;;;;;4974296;28;19926;-56
2023/11/23 12:54:43;;;;;;;;;;;23.60;37.40;;;;;;4972292;28;19927;-56
2023/11/23 12:57:12;;;;;;;;;;;23.60;37.50;;;;;;4975578;28;19934;-59
2023/11/23 12:59:39;;;;;;;;;;;23.60;37.30;;;;;;4970491;28;19956;-57
2023/11/23 13:02:06;;;;;;;;;;;23.60;36.90;;;;;;4976012;28;20016;-58
2023/11/23 13:04:34;;;;;;;;;;;23.60;36.70;;;;;;4970435;28;20303;-58
2023/11/23 13:07:02;;;;;;;;;;;23.60;36.60;;;;;;4969159;28;19930;-58
2023/11/23 13:09:29;;;;;;;;;;;23.70;36.50;;;;;;4972099;28;20339;-58
2023/11/23 13:11:58;;;;;;;;;;;23.60;36.50;;;;;;4972386;28;19985;-60
2023/11/23 13:14:25;;;;;;;;;;;23.60;36.50;;;;;;4973576;28;20028;-57
2023/11/23 13:16:52;;;;;;;;;;;23.60;36.30;;;;;;4965195;28;19974;-58
2023/11/23 13:19:21;;;;;;;;;;;23.60;36.30;;;;;;4954463;28;19961;-57
2023/11/23 13:22:04;;;;;;;;;;;23.60;36.40;;;;;;4969707;28;19930;-58
2023/11/23 13:24:32;;;;;;;;;;;23.60;36.10;;;;;;4972281;28;19977;-57
2023/11/23 13:27:00;;;;;;;;;;;23.60;36.30;;;;;;4954508;28;19937;-59
2023/11/23 13:29:27;;;;;;;;;;;23.50;36.60;;;;;;4974415;28;20439;-58
2023/11/23 13:31:57;;;;;;;;;;;23.50;36.90;;;;;;4970755;28;19969;-58
2023/11/23 13:34:25;;;;;;;;;;;23.50;36.90;;;;;;4972248;28;19938;-58
2023/11/23 13:36:53;;;;;;;;;;;23.40;36.90;;;;;;4970917;28;20013;-58
2023/11/23 13:39:21;;;;;;;;;;;23.50;36.90;;;;;;4969965;28;19926;-57
2023/11/23 13:41:48;;;;;;;;;;;23.50;37.40;;;;;;4967306;28;19942;-58
2023/11/23 13:44:15;;;;;;;;;;;23.50;38.10;;;;;;4970297;28;20058;-59
2023/11/23 13:46:44;;;;;;;;;;;23.40;37.60;;;;;;4973721;28;19926;-58
2023/11/23 13:49:11;;;;;;;;;;;23.50;37.60;;;;;;4966337;28;20272;-56
2023/11/23 13:51:38;;;;;;;;;;;23.50;37.50;;;;;;4966674;28;19934;-60
2023/11/23 13:54:06;;;;;;;;;;;23.50;37.80;;;;;;4967446;28;20339;-59
2023/11/23 13:56:34;;;;;;;;;;;23.50;38.20;;;;;;4969565;28;19941;-59
2023/11/23 13:59:01;;;;;;;;;;;23.50;38.00;;;;;;4967655;28;20024;-60
2023/11/23 14:01:28;;;;;;;;;;;23.40;37.60;;;;;;4969205;28;20403;-58
2023/11/23 14:03:57;;;;;;;;;;;23.40;37.70;;;;;;4965594;28;19977;-58
2023/11/23 14:06:24;;;;;;;;;;;23.40;37.70;;;;;;4950598;28;19926;-59
2023/11/23 14:08:51;;;;;;;;;;;23.40;38.00;;;;;;4963775;28;20434;-59
2023/11/23 14:11:19;;;;;;;;;;;23.40;38.40;;;;;;4944263;28;19934;-59
2023/11/23 14:13:48;;;;;;;;;;;23.40;38.60;;;;;;4946424;28;19938;-60
2023/11/23 14:16:15;;;;;;;;;;;23.40;38.50;;;;;;4951616;28;20028;-64
2023/11/23 14:18:42;;;;;;;;;;;23.40;38.10;;;;;;4940950;28;19953;-61